sensor_id;sensor_type;location;lat;lon;timestamp;temperature;humidity
67364;HTU21D;54250;45.572;38.086;2023-02-24T00:01:26;-8.65;75.89
67364;HTU21D;54250;45.572;38.086;2023-02-24T00:04:03;-8.68;75.86
67364;HTU21D;54250;45.572;38.086;2023-02-24T00:06:34;-8.70;76.05
67364;HTU21D;54250;45.572;38.086;2023-02-24T00:09:14;-8.67;76.06
67364;HTU21D;54250;45.572;38.086;2023-02-24T00:11:43;-8.56;76.12
67364;HTU21D;54250;45.572;38.086;2023-02-24T00:14:12;-8.41;75.99
67364;HTU21D;54250;45.572;38.086;2023-02-24T00:16:42;-8.31;75.75
67364;HTU21D;54250;45.572;38.086;2023-02-24T00:19:14;-8.24;75.83
67364;HTU21D;54250;45.572;38.086;2023-02-24T00:21:42;-8.12;75.93
67364;HTU21D;54250;45.572;38.086;2023-02-24T00:24:08;-8.04;75.93
67364;HTU21D;54250;45.572;38.086;2023-02-24T00:26:35;-7.92;75.99
67364;HTU21D;54250;45.572;38.086;2023-02-24T00:29:03;-7.81;75.87
67364;HTU21D;54250;45.572;38.086;2023-02-24T00:31:31;-7.78;75.91
67364;HTU21D;54250;45.572;38.086;2023-02-24T00:33:59;-7.74;76.26
67364;HTU21D;54250;45.572;38.086;2023-02-24T00:36:27;-7.62;76.34
67364;HTU21D;54250;45.572;38.086;2023-02-24T00:39:02;-7.59;76.13
67364;HTU21D;54250;45.572;38.086;2023-02-24T00:41:38;-7.61;76.21
67364;HTU21D;54250;45.572;38.086;2023-02-24T00:44:07;-7.66;76.43
67364;HTU21D;54250;45.572;38.086;2023-02-24T00:46:36;-7.67;76.63
67364;HTU21D;54250;45.572;38.086;2023-02-24T00:49:07;-7.65;76.66
67364;HTU21D;54250;45.572;38.086;2023-02-24T00:51:40;-7.64;76.60
67364;HTU21D;54250;45.572;38.086;2023-02-24T00:54:07;-7.62;76.69
67364;HTU21D;54250;45.572;38.086;2023-02-24T00:56:33;-7.55;76.77
67364;HTU21D;54250;45.572;38.086;2023-02-24T00:59:00;-7.44;76.63
67364;HTU21D;54250;45.572;38.086;2023-02-24T01:01:31;-7.38;76.42
67364;HTU21D;54250;45.572;38.086;2023-02-24T01:04:01;-7.35;76.34
67364;HTU21D;54250;45.572;38.086;2023-02-24T01:06:32;-7.36;76.41
67364;HTU21D;54250;45.572;38.086;2023-02-24T01:08:58;-7.39;76.54
67364;HTU21D;54250;45.572;38.086;2023-02-24T01:11:31;-7.40;76.66
67364;HTU21D;54250;45.572;38.086;2023-02-24T01:14:18;-7.42;76.79
67364;HTU21D;54250;45.572;38.086;2023-02-24T01:16:44;-7.47;76.87
67364;HTU21D;54250;45.572;38.086;2023-02-24T01:19:22;-7.51;76.89
67364;HTU21D;54250;45.572;38.086;2023-02-24T01:21:49;-7.57;77.03
67364;HTU21D;54250;45.572;38.086;2023-02-24T01:24:33;-7.64;77.11
67364;HTU21D;54250;45.572;38.086;2023-02-24T01:27:00;-7.69;77.27
67364;HTU21D;54250;45.572;38.086;2023-02-24T01:29:27;-7.75;77.33
67364;HTU21D;54250;45.572;38.086;2023-02-24T01:31:53;-7.81;77.44
67364;HTU21D;54250;45.572;38.086;2023-02-24T01:34:25;-7.89;77.60
67364;HTU21D;54250;45.572;38.086;2023-02-24T01:36:51;-7.85;77.60
67364;HTU21D;54250;45.572;38.086;2023-02-24T01:39:18;-7.76;77.41
67364;HTU21D;54250;45.572;38.086;2023-02-24T01:41:48;-7.67;77.11
67364;HTU21D;54250;45.572;38.086;2023-02-24T01:46:50;-7.64;76.79
67364;HTU21D;54250;45.572;38.086;2023-02-24T01:51:59;-7.72;76.94
67364;HTU21D;54250;45.572;38.086;2023-02-24T01:54:31;-7.74;77.05
67364;HTU21D;54250;45.572;38.086;2023-02-24T01:56:58;-7.76;77.17
67364;HTU21D;54250;45.572;38.086;2023-02-24T01:59:27;-7.78;77.15
67364;HTU21D;54250;45.572;38.086;2023-02-24T02:01:59;-7.81;77.25
67364;HTU21D;54250;45.572;38.086;2023-02-24T02:04:48;-7.80;77.21
67364;HTU21D;54250;45.572;38.086;2023-02-24T02:07:18;-7.76;77.22
67364;HTU21D;54250;45.572;38.086;2023-02-24T02:09:45;-7.76;77.30
67364;HTU21D;54250;45.572;38.086;2023-02-24T02:12:13;-7.68;77.24
67364;HTU21D;54250;45.572;38.086;2023-02-24T02:14:45;-7.56;76.98
67364;HTU21D;54250;45.572;38.086;2023-02-24T02:34:30;-7.17;76.72
67364;HTU21D;54250;45.572;38.086;2023-02-24T02:37:00;-7.29;77.15
67364;HTU21D;54250;45.572;38.086;2023-02-24T02:42:43;-7.22;77.63
67364;HTU21D;54250;45.572;38.086;2023-02-24T02:45:28;-7.12;77.55
67364;HTU21D;54250;45.572;38.086;2023-02-24T02:53:22;-6.88;77.72
67364;HTU21D;54250;45.572;38.086;2023-02-24T02:58:37;-6.72;78.26
67364;HTU21D;54250;45.572;38.086;2023-02-24T03:01:05;-6.66;78.20
67364;HTU21D;54250;45.572;38.086;2023-02-24T03:03:41;-6.63;78.43
67364;HTU21D;54250;45.572;38.086;2023-02-24T03:06:14;-6.58;78.63
67364;HTU21D;54250;45.572;38.086;2023-02-24T03:08:50;-6.56;78.88
67364;HTU21D;54250;45.572;38.086;2023-02-24T03:11:19;-6.58;78.70
67364;HTU21D;54250;45.572;38.086;2023-02-24T03:13:47;-6.57;78.85
67364;HTU21D;54250;45.572;38.086;2023-02-24T03:16:17;-6.58;79.30
67364;HTU21D;54250;45.572;38.086;2023-02-24T03:18:50;-6.55;79.28
67364;HTU21D;54250;45.572;38.086;2023-02-24T03:23:59;-6.57;79.26
67364;HTU21D;54250;45.572;38.086;2023-02-24T03:26:46;-6.58;79.44
67364;HTU21D;54250;45.572;38.086;2023-02-24T03:29:22;-6.57;79.40
67364;HTU21D;54250;45.572;38.086;2023-02-24T03:31:59;-6.60;79.21
67364;HTU21D;54250;45.572;38.086;2023-02-24T03:37:12;-6.74;79.88
67364;HTU21D;54250;45.572;38.086;2023-02-24T03:39:38;-6.75;79.91
67364;HTU21D;54250;45.572;38.086;2023-02-24T03:42:19;-6.77;79.69
67364;HTU21D;54250;45.572;38.086;2023-02-24T03:44:47;-6.80;79.69
67364;HTU21D;54250;45.572;38.086;2023-02-24T03:47:16;-6.81;79.67
67364;HTU21D;54250;45.572;38.086;2023-02-24T03:49:46;-6.80;79.75
67364;HTU21D;54250;45.572;38.086;2023-02-24T03:57:49;-6.86;79.69
67364;HTU21D;54250;45.572;38.086;2023-02-24T04:00:45;-6.87;79.56
67364;HTU21D;54250;45.572;38.086;2023-02-24T04:06:43;-6.91;79.65
67364;HTU21D;54250;45.572;38.086;2023-02-24T04:09:35;-6.94;79.91
67364;HTU21D;54250;45.572;38.086;2023-02-24T04:12:41;-7.01;79.93
67364;HTU21D;54250;45.572;38.086;2023-02-24T04:15:19;-6.95;80.38
67364;HTU21D;54250;45.572;38.086;2023-02-24T04:17:48;-6.89;80.21
67364;HTU21D;54250;45.572;38.086;2023-02-24T04:20:18;-6.80;79.97
67364;HTU21D;54250;45.572;38.086;2023-02-24T04:22:56;-6.72;80.02
67364;HTU21D;54250;45.572;38.086;2023-02-24T04:25:26;-6.66;80.14
67364;HTU21D;54250;45.572;38.086;2023-02-24T04:27:55;-6.60;80.17
67364;HTU21D;54250;45.572;38.086;2023-02-24T04:30:27;-6.53;80.29
67364;HTU21D;54250;45.572;38.086;2023-02-24T04:32:54;-6.44;80.51
67364;HTU21D;54250;45.572;38.086;2023-02-24T04:35:24;-6.17;80.33
67364;HTU21D;54250;45.572;38.086;2023-02-24T04:37:51;-5.93;79.82
67364;HTU21D;54250;45.572;38.086;2023-02-24T04:40:19;-5.76;79.88
67364;HTU21D;54250;45.572;38.086;2023-02-24T04:42:51;-5.56;79.95
67364;HTU21D;54250;45.572;38.086;2023-02-24T04:47:47;-5.41;79.99
67364;HTU21D;54250;45.572;38.086;2023-02-24T04:50:23;-5.38;80.23
67364;HTU21D;54250;45.572;38.086;2023-02-24T04:52:57;-5.25;80.36
67364;HTU21D;54250;45.572;38.086;2023-02-24T04:55:27;-5.20;80.28
67364;HTU21D;54250;45.572;38.086;2023-02-24T04:57:59;-5.16;80.37
67364;HTU21D;54250;45.572;38.086;2023-02-24T05:00:26;-5.13;80.46
67364;HTU21D;54250;45.572;38.086;2023-02-24T05:02:58;-5.08;80.63
67364;HTU21D;54250;45.572;38.086;2023-02-24T05:05:26;-5.05;80.67
67364;HTU21D;54250;45.572;38.086;2023-02-24T05:07:53;-4.97;80.60
67364;HTU21D;54250;45.572;38.086;2023-02-24T05:10:20;-4.88;80.50
67364;HTU21D;54250;45.572;38.086;2023-02-24T05:12:56;-4.82;80.47
67364;HTU21D;54250;45.572;38.086;2023-02-24T05:15:29;-4.70;80.40
67364;HTU21D;54250;45.572;38.086;2023-02-24T05:17:59;-4.57;80.11
67364;HTU21D;54250;45.572;38.086;2023-02-24T05:20:28;-4.44;80.11
67364;HTU21D;54250;45.572;38.086;2023-02-24T05:23:13;-4.36;79.99
67364;HTU21D;54250;45.572;38.086;2023-02-24T05:25:41;-4.26;79.84
67364;HTU21D;54250;45.572;38.086;2023-02-24T05:28:08;-4.17;79.90
67364;HTU21D;54250;45.572;38.086;2023-02-24T05:30:34;-4.12;79.88
67364;HTU21D;54250;45.572;38.086;2023-02-24T05:33:00;-4.09;80.07
67364;HTU21D;54250;45.572;38.086;2023-02-24T05:35:35;-4.06;80.25
67364;HTU21D;54250;45.572;38.086;2023-02-24T05:38:01;-4.01;80.46
67364;HTU21D;54250;45.572;38.086;2023-02-24T05:40:28;-3.93;80.51
67364;HTU21D;54250;45.572;38.086;2023-02-24T05:42:54;-3.77;80.40
67364;HTU21D;54250;45.572;38.086;2023-02-24T05:45:22;-3.61;80.07
67364;HTU21D;54250;45.572;38.086;2023-02-24T05:47:55;-3.50;79.98
67364;HTU21D;54250;45.572;38.086;2023-02-24T05:50:23;-3.48;79.98
67364;HTU21D;54250;45.572;38.086;2023-02-24T05:52:51;-3.32;80.09
67364;HTU21D;54250;45.572;38.086;2023-02-24T05:55:17;-2.97;79.67
67364;HTU21D;54250;45.572;38.086;2023-02-24T05:57:43;-2.54;78.78
67364;HTU21D;54250;45.572;38.086;2023-02-24T06:00:10;-2.37;78.32
67364;HTU21D;54250;45.572;38.086;2023-02-24T06:02:42;-2.44;78.21
67364;HTU21D;54250;45.572;38.086;2023-02-24T06:05:18;-2.41;78.67
67364;HTU21D;54250;45.572;38.086;2023-02-24T06:07:57;-1.80;78.27
67364;HTU21D;54250;45.572;38.086;2023-02-24T06:10:37;-1.31;76.87
67364;HTU21D;54250;45.572;38.086;2023-02-24T06:13:06;-1.27;76.70
67364;HTU21D;54250;45.572;38.086;2023-02-24T06:15:32;-0.89;76.18
67364;HTU21D;54250;45.572;38.086;2023-02-24T06:18:01;-0.71;75.65
67364;HTU21D;54250;45.572;38.086;2023-02-24T06:20:28;-0.77;75.70
67364;HTU21D;54250;45.572;38.086;2023-02-24T06:22:58;-0.53;75.86
67364;HTU21D;54250;45.572;38.086;2023-02-24T06:25:24;-0.37;74.60
67364;HTU21D;54250;45.572;38.086;2023-02-24T06:27:52;-0.39;74.67
67364;HTU21D;54250;45.572;38.086;2023-02-24T06:30:22;-0.44;74.22
67364;HTU21D;54250;45.572;38.086;2023-02-24T06:32:49;-0.47;74.40
67364;HTU21D;54250;45.572;38.086;2023-02-24T06:35:17;-0.10;73.72
67364;HTU21D;54250;45.572;38.086;2023-02-24T06:37:43;0.30;72.31
67364;HTU21D;54250;45.572;38.086;2023-02-24T06:40:10;0.47;72.27
67364;HTU21D;54250;45.572;38.086;2023-02-24T06:42:50;0.64;72.13
67364;HTU21D;54250;45.572;38.086;2023-02-24T06:45:20;0.79;71.17
67364;HTU21D;54250;45.572;38.086;2023-02-24T06:47:47;1.26;71.29
67364;HTU21D;54250;45.572;38.086;2023-02-24T06:50:16;2.95;68.33
67364;HTU21D;54250;45.572;38.086;2023-02-24T06:52:47;3.35;66.76
67364;HTU21D;54250;45.572;38.086;2023-02-24T06:55:15;2.82;67.20
67364;HTU21D;54250;45.572;38.086;2023-02-24T06:57:56;2.75;68.20
67364;HTU21D;54250;45.572;38.086;2023-02-24T07:00:27;3.14;66.53
67364;HTU21D;54250;45.572;38.086;2023-02-24T07:03:15;3.13;65.28
67364;HTU21D;54250;45.572;38.086;2023-02-24T07:05:47;3.56;65.01
67364;HTU21D;54250;45.572;38.086;2023-02-24T07:08:23;4.41;63.05
67364;HTU21D;54250;45.572;38.086;2023-02-24T07:10:56;5.19;61.44
67364;HTU21D;54250;45.572;38.086;2023-02-24T07:13:26;5.35;60.22
67364;HTU21D;54250;45.572;38.086;2023-02-24T07:15:55;4.79;61.06
67364;HTU21D;54250;45.572;38.086;2023-02-24T07:18:21;5.32;59.09
67364;HTU21D;54250;45.572;38.086;2023-02-24T07:20:51;5.78;58.23
67364;HTU21D;54250;45.572;38.086;2023-02-24T07:23:17;6.06;58.67
67364;HTU21D;54250;45.572;38.086;2023-02-24T07:25:43;6.00;58.17
67364;HTU21D;54250;45.572;38.086;2023-02-24T07:28:12;5.80;58.19
67364;HTU21D;54250;45.572;38.086;2023-02-24T07:30:39;5.25;57.95
67364;HTU21D;54250;45.572;38.086;2023-02-24T07:33:07;4.68;59.36
67364;HTU21D;54250;45.572;38.086;2023-02-24T07:35:33;4.46;59.56
67364;HTU21D;54250;45.572;38.086;2023-02-24T07:38:05;3.97;59.85
67364;HTU21D;54250;45.572;38.086;2023-02-24T07:40:32;3.64;61.18
67364;HTU21D;54250;45.572;38.086;2023-02-24T07:43:01;3.45;60.65
67364;HTU21D;54250;45.572;38.086;2023-02-24T07:45:27;3.24;60.98
67364;HTU21D;54250;45.572;38.086;2023-02-24T07:47:54;3.09;61.50
67364;HTU21D;54250;45.572;38.086;2023-02-24T07:50:20;3.13;62.11
67364;HTU21D;54250;45.572;38.086;2023-02-24T07:52:47;3.79;61.83
67364;HTU21D;54250;45.572;38.086;2023-02-24T07:55:14;4.75;59.41
67364;HTU21D;54250;45.572;38.086;2023-02-24T07:57:42;5.76;58.09
67364;HTU21D;54250;45.572;38.086;2023-02-24T08:00:15;6.28;56.31
67364;HTU21D;54250;45.572;38.086;2023-02-24T08:02:44;6.67;55.58
67364;HTU21D;54250;45.572;38.086;2023-02-24T08:05:10;7.04;53.93
67364;HTU21D;54250;45.572;38.086;2023-02-24T08:07:36;7.24;54.42
67364;HTU21D;54250;45.572;38.086;2023-02-24T08:10:12;7.24;54.63
67364;HTU21D;54250;45.572;38.086;2023-02-24T08:13:05;6.31;55.56
67364;HTU21D;54250;45.572;38.086;2023-02-24T08:15:32;5.42;56.54
67364;HTU21D;54250;45.572;38.086;2023-02-24T08:17:59;5.12;56.77
67364;HTU21D;54250;45.572;38.086;2023-02-24T08:20:27;6.50;55.68
67364;HTU21D;54250;45.572;38.086;2023-02-24T08:23:13;9.01;51.93
67364;HTU21D;54250;45.572;38.086;2023-02-24T08:25:39;9.91;50.63
67364;HTU21D;54250;45.572;38.086;2023-02-24T08:28:09;10.68;49.93
67364;HTU21D;54250;45.572;38.086;2023-02-24T08:30:43;11.00;49.34
67364;HTU21D;54250;45.572;38.086;2023-02-24T08:33:21;11.04;49.27
67364;HTU21D;54250;45.572;38.086;2023-02-24T08:35:57;10.41;49.21
67364;HTU21D;54250;45.572;38.086;2023-02-24T08:38:26;10.86;49.36
67364;HTU21D;54250;45.572;38.086;2023-02-24T08:41:12;10.92;48.80
67364;HTU21D;54250;45.572;38.086;2023-02-24T08:43:42;9.96;50.46
67364;HTU21D;54250;45.572;38.086;2023-02-24T08:48:54;7.98;52.10
67364;HTU21D;54250;45.572;38.086;2023-02-24T08:51:34;7.83;52.35
67364;HTU21D;54250;45.572;38.086;2023-02-24T08:54:06;8.96;51.57
67364;HTU21D;54250;45.572;38.086;2023-02-24T08:56:42;9.93;48.57
67364;HTU21D;54250;45.572;38.086;2023-02-24T08:59:12;10.45;48.08
67364;HTU21D;54250;45.572;38.086;2023-02-24T09:02:22;9.69;49.27
67364;HTU21D;54250;45.572;38.086;2023-02-24T09:07:22;9.80;48.08
67364;HTU21D;54250;45.572;38.086;2023-02-24T09:09:48;9.39;49.83
67364;HTU21D;54250;45.572;38.086;2023-02-24T09:12:15;9.76;49.15
67364;HTU21D;54250;45.572;38.086;2023-02-24T09:14:54;9.39;49.37
67364;HTU21D;54250;45.572;38.086;2023-02-24T09:17:23;8.64;50.40
67364;HTU21D;54250;45.572;38.086;2023-02-24T09:20:14;9.21;50.83
67364;HTU21D;54250;45.572;38.086;2023-02-24T09:23:02;10.28;48.85
67364;HTU21D;54250;45.572;38.086;2023-02-24T09:25:30;10.33;47.97
67364;HTU21D;54250;45.572;38.086;2023-02-24T09:28:41;10.69;48.02
67364;HTU21D;54250;45.572;38.086;2023-02-24T09:31:14;10.54;48.16
67364;HTU21D;54250;45.572;38.086;2023-02-24T09:33:43;10.67;48.38
67364;HTU21D;54250;45.572;38.086;2023-02-24T09:36:19;10.80;47.78
67364;HTU21D;54250;45.572;38.086;2023-02-24T09:38:59;10.68;47.97
67364;HTU21D;54250;45.572;38.086;2023-02-24T09:44:36;10.84;48.19
67364;HTU21D;54250;45.572;38.086;2023-02-24T09:52:53;10.28;47.50
67364;HTU21D;54250;45.572;38.086;2023-02-24T09:55:49;10.16;47.76
67364;HTU21D;54250;45.572;38.086;2023-02-24T10:07:09;10.40;47.74
67364;HTU21D;54250;45.572;38.086;2023-02-24T10:09:45;10.14;48.95
67364;HTU21D;54250;45.572;38.086;2023-02-24T10:14:53;9.85;49.31
67364;HTU21D;54250;45.572;38.086;2023-02-24T10:17:41;10.18;49.22
67364;HTU21D;54250;45.572;38.086;2023-02-24T10:20:18;10.38;49.22
67364;HTU21D;54250;45.572;38.086;2023-02-24T10:23:06;10.15;49.16
67364;HTU21D;54250;45.572;38.086;2023-02-24T10:25:46;9.90;49.50
67364;HTU21D;54250;45.572;38.086;2023-02-24T10:28:29;9.67;50.59
67364;HTU21D;54250;45.572;38.086;2023-02-24T10:31:10;9.95;50.34
67364;HTU21D;54250;45.572;38.086;2023-02-24T10:33:53;9.76;50.39
67364;HTU21D;54250;45.572;38.086;2023-02-24T10:36:22;9.33;51.24
67364;HTU21D;54250;45.572;38.086;2023-02-24T10:39:13;8.88;51.72
67364;HTU21D;54250;45.572;38.086;2023-02-24T10:41:49;8.28;53.23
67364;HTU21D;54250;45.572;38.086;2023-02-24T10:44:28;8.21;54.14
67364;HTU21D;54250;45.572;38.086;2023-02-24T10:47:12;8.41;53.50
67364;HTU21D;54250;45.572;38.086;2023-02-24T10:49:46;8.85;53.11
67364;HTU21D;54250;45.572;38.086;2023-02-24T10:52:36;9.18;52.77
67364;HTU21D;54250;45.572;38.086;2023-02-24T10:55:33;9.45;52.16
67364;HTU21D;54250;45.572;38.086;2023-02-24T10:58:32;9.04;52.05
67364;HTU21D;54250;45.572;38.086;2023-02-24T11:01:31;7.50;54.66
67364;HTU21D;54250;45.572;38.086;2023-02-24T11:04:17;6.64;56.74
67364;HTU21D;54250;45.572;38.086;2023-02-24T11:12:46;5.27;59.64
67364;HTU21D;54250;45.572;38.086;2023-02-24T11:15:35;5.21;60.03
67364;HTU21D;54250;45.572;38.086;2023-02-24T11:18:25;5.20;60.22
67364;HTU21D;54250;45.572;38.086;2023-02-24T11:21:02;5.16;60.57
67364;HTU21D;54250;45.572;38.086;2023-02-24T11:23:49;5.12;60.64
67364;HTU21D;54250;45.572;38.086;2023-02-24T11:26:25;5.08;60.93
67364;HTU21D;54250;45.572;38.086;2023-02-24T11:31:27;5.08;61.31
67364;HTU21D;54250;45.572;38.086;2023-02-24T11:36:58;5.07;61.56
67364;HTU21D;54250;45.572;38.086;2023-02-24T11:39:32;5.06;61.84
67364;HTU21D;54250;45.572;38.086;2023-02-24T11:42:08;5.08;61.92
67364;HTU21D;54250;45.572;38.086;2023-02-24T11:44:53;5.09;62.05
67364;HTU21D;54250;45.572;38.086;2023-02-24T11:47:30;5.15;62.21
67364;HTU21D;54250;45.572;38.086;2023-02-24T11:52:47;5.17;62.41
67364;HTU21D;54250;45.572;38.086;2023-02-24T11:55:26;5.23;62.42
67364;HTU21D;54250;45.572;38.086;2023-02-24T11:58:02;5.24;62.21
67364;HTU21D;54250;45.572;38.086;2023-02-24T12:00:34;5.24;62.41
67364;HTU21D;54250;45.572;38.086;2023-02-24T12:03:42;5.20;62.48
67364;HTU21D;54250;45.572;38.086;2023-02-24T12:06:32;5.25;62.66
67364;HTU21D;54250;45.572;38.086;2023-02-24T12:09:09;5.30;62.76
67364;HTU21D;54250;45.572;38.086;2023-02-24T12:14:56;5.21;62.80
67364;HTU21D;54250;45.572;38.086;2023-02-24T12:20:03;5.33;62.80
67364;HTU21D;54250;45.572;38.086;2023-02-24T12:22:57;5.40;62.77
67364;HTU21D;54250;45.572;38.086;2023-02-24T12:25:29;5.45;62.86
67364;HTU21D;54250;45.572;38.086;2023-02-24T12:28:23;5.48;62.80
67364;HTU21D;54250;45.572;38.086;2023-02-24T12:33:45;5.42;62.70
67364;HTU21D;54250;45.572;38.086;2023-02-24T12:47:40;5.23;63.05
67364;HTU21D;54250;45.572;38.086;2023-02-24T12:50:36;5.28;63.11
67364;HTU21D;54250;45.572;38.086;2023-02-24T12:56:33;5.21;63.11
67364;HTU21D;54250;45.572;38.086;2023-02-24T12:59:03;5.26;63.20
67364;HTU21D;54250;45.572;38.086;2023-02-24T13:01:34;5.27;63.23
67364;HTU21D;54250;45.572;38.086;2023-02-24T13:09:44;5.38;63.24
67364;HTU21D;54250;45.572;38.086;2023-02-24T13:15:05;5.32;63.50
67364;HTU21D;54250;45.572;38.086;2023-02-24T13:17:31;5.26;63.76
67364;HTU21D;54250;45.572;38.086;2023-02-24T13:20:09;5.21;63.91
67364;HTU21D;54250;45.572;38.086;2023-02-24T13:22:40;5.19;64.11
67364;HTU21D;54250;45.572;38.086;2023-02-24T13:27:37;5.12;64.11
67364;HTU21D;54250;45.572;38.086;2023-02-24T13:30:06;5.11;64.18
67364;HTU21D;54250;45.572;38.086;2023-02-24T13:32:57;5.16;64.20
67364;HTU21D;54250;45.572;38.086;2023-02-24T13:37:53;5.16;64.48
67364;HTU21D;54250;45.572;38.086;2023-02-24T13:48:05;5.23;64.63
67364;HTU21D;54250;45.572;38.086;2023-02-24T13:57:20;5.13;65.14
67364;HTU21D;54250;45.572;38.086;2023-02-24T14:02:15;5.08;65.37
67364;HTU21D;54250;45.572;38.086;2023-02-24T14:04:57;5.02;65.41
67364;HTU21D;54250;45.572;38.086;2023-02-24T14:07:29;5.00;65.53
67364;HTU21D;54250;45.572;38.086;2023-02-24T14:10:02;4.96;65.63
67364;HTU21D;54250;45.572;38.086;2023-02-24T14:12:33;4.93;65.71
67364;HTU21D;54250;45.572;38.086;2023-02-24T14:15:00;4.83;65.92
67364;HTU21D;54250;45.572;38.086;2023-02-24T14:17:34;4.79;66.09
67364;HTU21D;54250;45.572;38.086;2023-02-24T14:22:32;4.67;66.30
67364;HTU21D;54250;45.572;38.086;2023-02-24T14:25:05;4.58;66.33
67364;HTU21D;54250;45.572;38.086;2023-02-24T14:27:36;4.46;66.56
67364;HTU21D;54250;45.572;38.086;2023-02-24T14:30:04;4.37;66.72
67364;HTU21D;54250;45.572;38.086;2023-02-24T14:32:31;4.31;66.95
67364;HTU21D;54250;45.572;38.086;2023-02-24T14:34:58;4.27;67.15
67364;HTU21D;54250;45.572;38.086;2023-02-24T14:37:27;4.19;67.17
67364;HTU21D;54250;45.572;38.086;2023-02-24T14:39:56;4.08;67.38
67364;HTU21D;54250;45.572;38.086;2023-02-24T14:42:23;3.95;67.50
67364;HTU21D;54250;45.572;38.086;2023-02-24T14:44:51;3.84;67.57
67364;HTU21D;54250;45.572;38.086;2023-02-24T14:47:20;3.69;67.77
67364;HTU21D;54250;45.572;38.086;2023-02-24T14:50:04;3.58;67.67
67364;HTU21D;54250;45.572;38.086;2023-02-24T14:52:42;3.41;67.97
67364;HTU21D;54250;45.572;38.086;2023-02-24T14:55:16;3.23;68.09
67364;HTU21D;54250;45.572;38.086;2023-02-24T14:57:54;3.01;68.33
67364;HTU21D;54250;45.572;38.086;2023-02-24T15:00:26;2.81;68.52
67364;HTU21D;54250;45.572;38.086;2023-02-24T15:03:17;2.59;68.60
67364;HTU21D;54250;45.572;38.086;2023-02-24T15:05:53;2.45;68.88
67364;HTU21D;54250;45.572;38.086;2023-02-24T15:08:49;2.29;69.09
67364;HTU21D;54250;45.572;38.086;2023-02-24T15:11:21;2.19;69.44
67364;HTU21D;54250;45.572;38.086;2023-02-24T15:16:37;1.93;69.33
67364;HTU21D;54250;45.572;38.086;2023-02-24T15:19:20;1.77;69.56
67364;HTU21D;54250;45.572;38.086;2023-02-24T15:21:48;1.63;69.76
67364;HTU21D;54250;45.572;38.086;2023-02-24T15:24:29;1.52;69.81
67364;HTU21D;54250;45.572;38.086;2023-02-24T15:27:19;1.38;69.84
67364;HTU21D;54250;45.572;38.086;2023-02-24T15:30:00;1.32;70.00
67364;HTU21D;54250;45.572;38.086;2023-02-24T15:32:30;1.23;70.19
67364;HTU21D;54250;45.572;38.086;2023-02-24T15:34:56;1.09;70.26
67364;HTU21D;54250;45.572;38.086;2023-02-24T15:37:30;1.02;70.34
67364;HTU21D;54250;45.572;38.086;2023-02-24T15:40:19;0.94;70.42
67364;HTU21D;54250;45.572;38.086;2023-02-24T15:42:55;0.82;70.42
67364;HTU21D;54250;45.572;38.086;2023-02-24T15:45:28;0.71;70.68
67364;HTU21D;54250;45.572;38.086;2023-02-24T15:47:58;0.51;70.90
67364;HTU21D;54250;45.572;38.086;2023-02-24T15:50:26;0.61;71.09
67364;HTU21D;54250;45.572;38.086;2023-02-24T15:52:57;0.59;71.43
67364;HTU21D;54250;45.572;38.086;2023-02-24T15:55:28;0.53;71.35
67364;HTU21D;54250;45.572;38.086;2023-02-24T15:58:02;0.49;72.00
67364;HTU21D;54250;45.572;38.086;2023-02-24T16:00:28;0.52;72.44
67364;HTU21D;54250;45.572;38.086;2023-02-24T16:02:56;0.55;72.12
67364;HTU21D;54250;45.572;38.086;2023-02-24T16:05:24;0.54;71.98
67364;HTU21D;54250;45.572;38.086;2023-02-24T16:07:50;0.49;72.04
67364;HTU21D;54250;45.572;38.086;2023-02-24T16:10:24;0.44;72.01
67364;HTU21D;54250;45.572;38.086;2023-02-24T16:12:56;0.37;72.17
67364;HTU21D;54250;45.572;38.086;2023-02-24T16:15:27;0.34;72.22
67364;HTU21D;54250;45.572;38.086;2023-02-24T16:17:54;0.24;72.24
67364;HTU21D;54250;45.572;38.086;2023-02-24T16:20:25;0.18;72.65
67364;HTU21D;54250;45.572;38.086;2023-02-24T16:23:00;0.14;72.49
67364;HTU21D;54250;45.572;38.086;2023-02-24T16:25:27;0.07;72.70
67364;HTU21D;54250;45.572;38.086;2023-02-24T16:27:54;0.01;72.58
67364;HTU21D;54250;45.572;38.086;2023-02-24T16:30:27;-0.08;72.77
67364;HTU21D;54250;45.572;38.086;2023-02-24T16:32:59;-0.07;73.17
67364;HTU21D;54250;45.572;38.086;2023-02-24T16:35:26;-0.05;73.32
67364;HTU21D;54250;45.572;38.086;2023-02-24T16:37:52;-0.03;73.95
67364;HTU21D;54250;45.572;38.086;2023-02-24T16:40:24;-0.00;73.70
67364;HTU21D;54250;45.572;38.086;2023-02-24T16:42:52;-0.02;73.81
67364;HTU21D;54250;45.572;38.086;2023-02-24T16:45:20;-0.00;73.89
67364;HTU21D;54250;45.572;38.086;2023-02-24T16:47:49;0.01;73.87
67364;HTU21D;54250;45.572;38.086;2023-02-24T16:50:28;-0.02;73.79
67364;HTU21D;54250;45.572;38.086;2023-02-24T16:52:55;-0.07;74.38
67364;HTU21D;54250;45.572;38.086;2023-02-24T16:55:21;-0.12;74.31
67364;HTU21D;54250;45.572;38.086;2023-02-24T16:57:47;-0.23;74.16
67364;HTU21D;54250;45.572;38.086;2023-02-24T17:00:14;-0.37;74.20
67364;HTU21D;54250;45.572;38.086;2023-02-24T17:02:42;-0.42;74.38
67364;HTU21D;54250;45.572;38.086;2023-02-24T17:05:19;-0.46;74.54
67364;HTU21D;54250;45.572;38.086;2023-02-24T17:07:46;-0.46;74.75
67364;HTU21D;54250;45.572;38.086;2023-02-24T17:10:13;-0.51;74.89
67364;HTU21D;54250;45.572;38.086;2023-02-24T17:12:39;-0.49;74.67
67364;HTU21D;54250;45.572;38.086;2023-02-24T17:15:07;-0.42;74.70
67364;HTU21D;54250;45.572;38.086;2023-02-24T17:17:35;-0.34;75.26
67364;HTU21D;54250;45.572;38.086;2023-02-24T17:20:02;-0.28;74.89
67364;HTU21D;54250;45.572;38.086;2023-02-24T17:22:29;-0.26;75.12
67364;HTU21D;54250;45.572;38.086;2023-02-24T17:24:55;-0.21;75.57
67364;HTU21D;54250;45.572;38.086;2023-02-24T17:27:21;-0.17;75.69
67364;HTU21D;54250;45.572;38.086;2023-02-24T17:29:47;-0.17;75.60
67364;HTU21D;54250;45.572;38.086;2023-02-24T17:32:13;-0.22;75.54
67364;HTU21D;54250;45.572;38.086;2023-02-24T17:34:39;-0.24;75.69
67364;HTU21D;54250;45.572;38.086;2023-02-24T17:37:05;-0.24;75.70
67364;HTU21D;54250;45.572;38.086;2023-02-24T17:39:31;-0.27;75.91
67364;HTU21D;54250;45.572;38.086;2023-02-24T17:41:57;-0.31;76.18
67364;HTU21D;54250;45.572;38.086;2023-02-24T17:44:23;-0.28;76.34
67364;HTU21D;54250;45.572;38.086;2023-02-24T17:46:49;-0.17;76.24
67364;HTU21D;54250;45.572;38.086;2023-02-24T17:49:16;-0.11;76.50
67364;HTU21D;54250;45.572;38.086;2023-02-24T17:51:42;-0.10;76.65
67364;HTU21D;54250;45.572;38.086;2023-02-24T17:54:08;-0.07;77.20
67364;HTU21D;54250;45.572;38.086;2023-02-24T17:56:34;-0.02;78.05
67364;HTU21D;54250;45.572;38.086;2023-02-24T17:59:00;0.06;77.99
67364;HTU21D;54250;45.572;38.086;2023-02-24T18:01:27;0.13;78.41
67364;HTU21D;54250;45.572;38.086;2023-02-24T18:03:53;0.13;78.47
67364;HTU21D;54250;45.572;38.086;2023-02-24T18:06:23;0.10;78.79
67364;HTU21D;54250;45.572;38.086;2023-02-24T18:08:49;0.09;79.28
67364;HTU21D;54250;45.572;38.086;2023-02-24T18:11:18;0.09;79.17